Time;durP1;ratioP1;P1;durP2;ratioP2;P2;SDS_P1;SDS_P2;PMS_P1;PMS_P2;Temp;Humidity;BMP_temperature;BMP_pressure;BME280_temperature;BME280_humidity;BME280_pressure;Samples;Min_cycle;Max_cycle;Signal;HPM_P1;HPM_P2
2022/06/26 00:02:42;;;;;;;1.88;1.45;;;;;;;21.01;79.53;100898.56;6222949;28;20054;-71
2022/06/26 00:05:43;;;;;;;1.45;1.35;;;;;;;20.93;80.56;100897.59;6222621;28;20053;-72
2022/06/26 00:08:45;;;;;;;1.88;1.40;;;;;;;20.88;80.88;100900.72;6222917;28;20509;-72
2022/06/26 00:11:46;;;;;;;1.90;1.70;;;;;;;20.86;80.72;100901.84;6222542;28;20501;-72
2022/06/26 00:14:48;;;;;;;1.45;1.23;;;;;;;20.83;81.17;100910.16;6222347;28;20046;-71
2022/06/26 00:17:51;;;;;;;2.65;1.55;;;;;;;20.81;81.60;100904.13;6223283;28;20049;-72
2022/06/26 00:20:52;;;;;;;1.48;1.27;;;;;;;20.73;81.87;100916.34;6222199;28;20058;-71
2022/06/26 00:23:54;;;;;;;1.80;1.35;;;;;;;20.71;82.55;100915.66;6220216;28;20530;-72
2022/06/26 00:26:55;;;;;;;1.77;1.45;;;;;;;20.67;82.75;100916.94;6222577;28;20513;-73
2022/06/26 00:29:58;;;;;;;1.63;1.23;;;;;;;20.62;83.07;100904.97;6221663;28;20049;-72
2022/06/26 00:32:59;;;;;;;3.85;1.27;;;;;;;20.60;83.72;100913.13;6220815;28;20057;-71
2022/06/26 00:36:00;;;;;;;4.00;1.38;;;;;;;20.55;83.74;100910.06;6222150;28;20056;-74
2022/06/26 00:39:01;;;;;;;2.47;1.50;;;;;;;20.51;84.08;100909.50;6222481;28;20042;-72
2022/06/26 00:42:04;;;;;;;2.10;1.40;;;;;;;20.51;84.25;100905.97;6221259;28;20677;-72
2022/06/26 00:45:08;;;;;;;2.38;1.50;;;;;;;20.48;84.73;100909.78;6222102;28;20449;-73
2022/06/26 00:48:09;;;;;;;1.85;1.50;;;;;;;20.46;84.86;100908.22;6221881;28;20395;-72
2022/06/26 00:51:11;;;;;;;2.42;1.60;;;;;;;20.42;85.26;100904.13;6221863;28;20049;-71
2022/06/26 00:54:13;;;;;;;2.75;1.35;;;;;;;20.40;85.54;100906.94;6219348;28;20061;-73
2022/06/26 00:57:14;;;;;;;2.20;1.50;;;;;;;20.43;85.06;100908.47;6222325;28;20054;-71
2022/06/26 01:00:20;;;;;;;2.30;1.40;;;;;;;20.41;84.95;100921.97;6221443;28;20054;-72
2022/06/26 01:03:21;;;;;;;2.88;1.42;;;;;;;20.36;85.11;100920.72;6221798;28;20425;-73
2022/06/26 01:06:22;;;;;;;1.88;1.50;;;;;;;20.33;85.05;100921.00;6221385;28;20050;-73
2022/06/26 01:09:25;;;;;;;1.60;1.50;;;;;;;20.31;85.69;100922.97;6222117;28;20141;-74
2022/06/26 01:12:26;;;;;;;1.70;1.45;;;;;;;20.26;86.05;100916.22;6221470;28;20057;-73
2022/06/26 01:15:29;;;;;;;4.45;1.58;;;;;;;20.25;85.65;100921.69;6221716;28;20057;-73
2022/06/26 01:18:31;;;;;;;1.55;1.38;;;;;;;20.24;85.81;100918.19;6221766;28;20422;-73
2022/06/26 01:21:33;;;;;;;2.80;1.50;;;;;;;20.23;85.86;100921.84;6221222;28;20054;-73
2022/06/26 01:24:36;;;;;;;1.35;1.20;;;;;;;20.23;86.08;100927.19;6219867;28;20512;-73
2022/06/26 01:27:42;;;;;;;1.77;1.45;;;;;;;20.21;86.28;100920.28;6221495;28;20053;-73
2022/06/26 01:30:44;;;;;;;1.73;1.42;;;;;;;20.16;87.06;100931.38;6199172;28;20407;-72
2022/06/26 01:33:45;;;;;;;2.60;1.48;;;;;;;20.10;86.75;100929.28;6196632;28;20053;-74
2022/06/26 01:36:47;;;;;;;1.20;1.10;;;;;;;20.03;86.74;100928.16;6197421;28;20061;-72
2022/06/26 01:39:50;;;;;;;2.45;1.20;;;;;;;19.96;87.09;100930.53;6196588;28;20061;-72
2022/06/26 01:42:51;;;;;;;3.97;1.33;;;;;;;19.95;87.20;100928.00;6200626;28;20494;-73
2022/06/26 01:45:55;;;;;;;1.75;1.50;;;;;;;19.91;87.35;100929.25;6201320;28;20057;-73
2022/06/26 01:48:56;;;;;;;2.75;1.13;;;;;;;19.87;87.40;100928.69;6202051;28;20043;-73
2022/06/26 01:51:57;;;;;;;1.40;1.30;;;;;;;19.88;88.07;100922.34;6201085;28;20068;-73
2022/06/26 01:55:01;;;;;;;1.33;1.17;;;;;;;19.88;88.28;100926.84;6208398;28;20050;-73
2022/06/26 01:58:03;;;;;;;2.95;1.63;;;;;;;19.88;88.37;100930.34;6201402;28;20050;-73
2022/06/26 02:01:05;;;;;;;1.58;1.23;;;;;;;19.85;88.25;100933.31;6200987;28;20065;-73
2022/06/26 02:04:06;;;;;;;1.25;1.15;;;;;;;19.83;88.61;100931.75;6201066;28;20057;-74
2022/06/26 02:07:07;;;;;;;1.83;1.30;;;;;;;19.79;88.70;100927.66;6201362;28;20498;-73
2022/06/26 02:13:39;;;;;;;1.88;1.50;;;;;;;19.71;88.95;100925.69;6201244;28;20077;-73
2022/06/26 02:16:40;;;;;;;2.83;1.60;;;;;;;19.65;89.15;100929.75;6200849;28;20569;-73
2022/06/26 02:19:41;;;;;;;1.60;1.20;;;;;;;19.59;89.60;100919.59;6200605;28;20049;-72
2022/06/26 02:22:43;;;;;;;2.92;1.50;;;;;;;19.55;89.80;100915.50;6201107;28;20053;-73
2022/06/26 02:25:46;;;;;;;1.50;1.40;;;;;;;19.54;90.56;100918.31;6213658;28;20516;-73
2022/06/26 02:28:48;;;;;;;1.92;1.30;;;;;;;19.49;90.86;100916.06;6225169;28;20053;-73
2022/06/26 02:31:50;;;;;;;2.65;1.92;;;;;;;19.45;91.45;100912.81;6224544;28;20054;-73
2022/06/26 02:34:51;;;;;;;2.35;1.40;;;;;;;19.43;91.64;100919.25;6225038;28;20046;-73
2022/06/26 02:37:54;;;;;;;1.60;1.50;;;;;;;19.38;91.64;100919.66;6224955;28;20054;-72
2022/06/26 02:40:57;;;;;;;2.50;1.70;;;;;;;19.34;92.30;100914.72;6221339;23;20578;-72
2022/06/26 02:43:58;;;;;;;2.08;1.50;;;;;;;19.30;92.99;100926.63;6151767;29;20051;-72
2022/06/26 02:47:00;;;;;;;2.28;1.67;;;;;;;19.25;93.15;100932.34;6149151;29;20503;-72
2022/06/26 02:50:03;;;;;;;1.60;1.33;;;;;;;19.24;93.51;100928.00;6152584;28;20051;-72
2022/06/26 02:53:05;;;;;;;1.35;1.25;;;;;;;19.20;92.87;100924.75;6176167;28;20193;-73
2022/06/26 02:56:08;;;;;;;1.55;1.40;;;;;;;19.12;93.71;100919.28;6198645;28;20054;-72
2022/06/26 02:59:09;;;;;;;1.48;1.33;;;;;;;19.09;94.58;100918.69;6187934;28;20050;-72
2022/06/26 03:02:11;;;;;;;1.75;1.17;;;;;;;19.10;94.30;100923.03;6175654;28;20058;-71
2022/06/26 03:05:12;;;;;;;4.25;1.70;;;;;;;19.08;94.46;100923.19;6175370;28;20407;-72
2022/06/26 03:08:13;;;;;;;1.45;1.30;;;;;;;19.03;94.99;100922.75;6175876;28;20051;-73
2022/06/26 03:11:16;;;;;;;2.50;1.90;;;;;;;19.04;94.78;100928.91;6175135;28;20630;-72
2022/06/26 03:14:17;;;;;;;3.55;1.40;;;;;;;19.01;94.86;100924.69;6175734;28;20054;-72
2022/06/26 03:17:20;;;;;;;1.80;1.58;;;;;;;18.97;95.44;100924.09;6175490;28;20062;-72
2022/06/26 03:20:22;;;;;;;1.70;1.55;;;;;;;18.96;95.42;100919.75;6175382;28;20089;-72
2022/06/26 03:24:00;;;;;;;2.08;1.60;;;;;;;18.95;95.80;100923.38;6176531;28;20047;-72
2022/06/26 03:26:48;;;;;;;1.70;1.50;;;;;;;18.90;96.01;100927.44;6175203;28;20058;-72
2022/06/26 03:29:49;;;;;;;1.77;1.38;;;;;;;18.86;96.59;100929.50;6174891;28;20055;-72
2022/06/26 03:32:50;;;;;;;2.20;1.60;;;;;;;18.87;96.54;100935.69;6175292;28;20514;-72
2022/06/26 03:35:52;;;;;;;5.85;1.48;;;;;;;18.83;97.27;100947.56;6174819;28;20058;-72
2022/06/26 03:38:53;;;;;;;1.73;1.60;;;;;;;18.81;97.61;100953.03;6175138;28;20410;-73
2022/06/26 03:42:00;;;;;;;1.80;1.50;;;;;;;18.79;98.14;100946.13;6174588;28;20065;-72
2022/06/26 03:45:01;;;;;;;1.95;1.35;;;;;;;18.81;98.31;100949.53;6174803;28;20412;-72
2022/06/26 03:48:02;;;;;;;1.58;1.40;;;;;;;18.81;98.44;100947.69;6175258;28;20051;-72
2022/06/26 03:51:04;;;;;;;2.92;1.60;;;;;;;18.82;98.54;100954.69;6174274;28;20529;-73
2022/06/26 03:54:06;;;;;;;1.70;1.50;;;;;;;18.78;99.45;100953.28;6175588;28;20053;-72
2022/06/26 03:57:08;;;;;;;1.70;1.52;;;;;;;18.75;99.82;100951.69;6174725;28;20050;-72
2022/06/26 04:00:10;;;;;;;1.90;1.65;;;;;;;18.74;100.00;100952.69;6174189;28;20050;-72
2022/06/26 04:03:12;;;;;;;1.55;1.35;;;;;;;18.79;100.00;100959.44;6174532;28;20054;-72
2022/06/26 04:06:13;;;;;;;2.00;1.48;;;;;;;18.79;100.00;100954.13;6173708;28;20513;-71
2022/06/26 04:09:14;;;;;;;2.40;1.50;;;;;;;18.76;100.00;100955.22;6174307;28;20426;-73
2022/06/26 04:12:17;;;;;;;1.92;1.40;;;;;;;18.78;100.00;100952.44;6173797;28;20458;-72
2022/06/26 04:15:19;;;;;;;1.73;1.35;;;;;;;18.77;100.00;100954.25;6173922;28;20054;-72
2022/06/26 04:18:20;;;;;;;2.35;1.65;;;;;;;18.79;100.00;100957.63;6174017;28;20400;-73
2022/06/26 04:21:22;;;;;;;2.90;1.90;;;;;;;18.83;100.00;100955.53;6173855;28;20046;-72
2022/06/26 04:24:23;;;;;;;2.05;1.50;;;;;;;18.87;100.00;100963.16;6174760;28;20046;-72
2022/06/26 04:27:26;;;;;;;1.40;1.30;;;;;;;18.90;100.00;100954.06;6174234;28;20061;-72
2022/06/26 04:30:27;;;;;;;2.05;1.40;;;;;;;18.92;99.96;100950.28;6174633;28;20047;-72
2022/06/26 04:33:29;;;;;;;3.75;2.17;;;;;;;18.97;99.74;100952.53;6174118;28;20046;-72
2022/06/26 04:36:30;;;;;;;4.25;2.72;;;;;;;19.01;99.47;100956.66;6173597;28;20047;-72
2022/06/26 04:39:31;;;;;;;4.05;2.60;;;;;;;19.05;99.51;100971.38;6173904;28;20058;-72
2022/06/26 04:42:34;;;;;;;4.40;2.35;;;;;;;19.08;99.67;100965.81;6172742;28;20442;-72
2022/06/26 04:45:36;;;;;;;8.27;4.50;;;;;;;19.16;98.94;100989.09;6173177;28;20495;-72
2022/06/26 04:48:37;;;;;;;1.70;1.48;;;;;;;19.24;95.78;100984.81;6173403;28;20051;-72
2022/06/26 04:51:39;;;;;;;1.95;1.55;;;;;;;19.37;94.22;100983.75;6173374;28;20058;-72
2022/06/26 04:54:41;;;;;;;1.63;1.52;;;;;;;19.48;92.09;100986.31;6175303;28;20498;-72
2022/06/26 04:57:43;;;;;;;1.98;1.50;;;;;;;19.52;91.89;100995.75;6174724;28;20047;-73
2022/06/26 05:00:45;;;;;;;1.40;1.30;;;;;;;19.55;92.00;100999.97;6172772;28;20050;-72
2022/06/26 05:03:46;;;;;;;1.40;1.30;;;;;;;19.59;91.12;101004.91;6173145;28;20055;-73
2022/06/26 05:06:47;;;;;;;4.13;2.40;;;;;;;19.63;90.93;101002.88;6173554;28;20061;-72
2022/06/26 05:09:49;;;;;;;1.92;1.30;;;;;;;19.65;91.33;101004.41;6173086;28;20046;-71
2022/06/26 05:12:52;;;;;;;4.10;1.75;;;;;;;19.70;89.58;101010.16;6173535;28;20522;-72
2022/06/26 05:15:53;;;;;;;1.63;1.40;;;;;;;19.73;88.95;101017.91;6174669;28;20133;-72
2022/06/26 05:18:54;;;;;;;3.15;1.40;;;;;;;19.81;87.94;101011.06;6178435;28;20054;-73
2022/06/26 05:21:56;;;;;;;1.58;1.48;;;;;;;19.88;87.61;101017.53;6177977;28;20059;-72
2022/06/26 05:24:57;;;;;;;1.88;1.55;;;;;;;19.92;88.06;101016.28;6178632;28;20054;-73
2022/06/26 05:28:00;;;;;;;1.77;1.50;;;;;;;19.98;87.32;101013.06;6177710;28;20043;-72
2022/06/26 05:31:01;;;;;;;1.77;1.40;;;;;;;19.99;88.02;101015.63;6177362;28;20057;-73
2022/06/26 05:34:02;;;;;;;1.73;1.50;;;;;;;20.08;87.76;101016.63;6177539;28;20051;-73
2022/06/26 05:37:04;;;;;;;3.88;1.40;;;;;;;20.13;87.58;101027.75;6177258;28;20047;-73
2022/06/26 05:40:07;;;;;;;2.00;1.52;;;;;;;20.23;86.14;101028.59;6176398;28;20414;-73
2022/06/26 05:43:10;;;;;;;1.48;1.35;;;;;;;20.37;84.18;101026.50;6177504;28;20051;-72
2022/06/26 05:46:11;;;;;;;1.83;1.58;;;;;;;20.48;83.60;101037.94;6177155;28;20414;-73
2022/06/26 05:49:13;;;;;;;2.55;1.60;;;;;;;20.57;83.58;101033.56;6177541;28;20533;-72
2022/06/26 05:52:14;;;;;;;1.83;1.40;;;;;;;20.71;80.53;101035.88;6177414;28;20050;-73
2022/06/26 05:55:15;;;;;;;2.80;1.60;;;;;;;20.85;78.82;101031.91;6177380;28;20062;-73
2022/06/26 05:58:18;;;;;;;2.05;1.30;;;;;;;21.01;77.43;101048.19;6177674;28;20054;-72
2022/06/26 06:01:19;;;;;;;2.28;1.48;;;;;;;21.17;75.48;101052.97;6175870;28;20054;-72
2022/06/26 06:04:21;;;;;;;1.63;1.40;;;;;;;21.27;75.78;101047.63;6175365;28;20054;-72
2022/06/26 06:07:22;;;;;;;1.58;1.33;;;;;;;21.37;75.59;101050.28;6176932;28;20047;-73
2022/06/26 06:10:25;;;;;;;2.92;1.35;;;;;;;21.39;76.37;101059.88;6176600;28;20046;-73
2022/06/26 06:13:28;;;;;;;1.48;1.10;;;;;;;21.57;73.33;101053.75;6177274;28;20051;-73
2022/06/26 06:16:29;;;;;;;1.58;1.35;;;;;;;21.71;72.51;101058.63;6176485;28;20479;-73
2022/06/26 06:19:31;;;;;;;3.42;2.08;;;;;;;21.85;72.56;101066.19;6177181;28;20042;-73
2022/06/26 06:22:32;;;;;;;2.13;1.73;;;;;;;21.88;72.23;101062.38;6176428;28;20074;-72
2022/06/26 06:25:34;;;;;;;1.92;1.48;;;;;;;21.88;73.35;101065.88;6177472;28;20047;-73
2022/06/26 06:28:37;;;;;;;2.53;1.60;;;;;;;21.91;73.36;101078.97;6176091;28;20529;-73
2022/06/26 06:31:38;;;;;;;1.70;1.17;;;;;;;22.07;72.50;101081.00;6176200;28;20050;-73
2022/06/26 06:34:40;;;;;;;2.05;1.73;;;;;;;22.10;72.54;101080.72;6176120;28;20120;-72
2022/06/26 06:37:41;;;;;;;2.45;1.70;;;;;;;22.09;71.56;101100.47;6176510;28;20051;-73
2022/06/26 06:40:43;;;;;;;2.00;1.80;;;;;;;22.12;71.98;101110.03;6176104;28;20046;-73
2022/06/26 06:43:46;;;;;;;2.72;1.88;;;;;;;22.06;72.50;101115.97;6176008;28;20073;-71
2022/06/26 06:46:48;;;;;;;1.92;1.70;;;;;;;21.97;72.32;101121.19;6176515;28;20050;-72
2022/06/26 06:49:49;;;;;;;3.05;1.65;;;;;;;21.92;72.74;101119.97;6175785;28;20046;-72
2022/06/26 06:52:50;;;;;;;1.92;1.40;;;;;;;21.90;72.70;101119.28;6179165;28;20068;-73
2022/06/26 06:55:52;;;;;;;3.78;1.25;;;;;;;21.87;72.94;101133.78;6199859;28;20057;-72
2022/06/26 06:58:54;;;;;;;1.63;1.40;;;;;;;21.89;72.79;101136.31;6200353;28;20061;-72
2022/06/26 07:01:56;;;;;;;1.77;1.10;;;;;;;21.81;72.97;101142.41;6199697;28;20529;-72
2022/06/26 07:04:57;;;;;;;1.38;1.27;;;;;;;21.80;73.36;101156.75;6199957;28;20061;-71
2022/06/26 07:07:59;;;;;;;2.05;1.58;;;;;;;21.82;73.46;101148.59;6199973;28;20047;-73
2022/06/26 07:11:01;;;;;;;1.17;1.10;;;;;;;21.75;74.79;101148.31;6199370;28;20050;-72
2022/06/26 07:14:04;;;;;;;4.15;2.40;;;;;;;21.71;74.27;101144.22;6199547;28;20061;-72
2022/06/26 07:17:05;;;;;;;1.65;1.55;;;;;;;21.80;75.02;101143.38;6199646;28;20065;-72
2022/06/26 07:20:08;;;;;;;2.30;1.83;;;;;;;22.00;74.82;101147.69;6199448;28;20548;-72
2022/06/26 07:23:10;;;;;;;2.30;1.63;;;;;;;22.11;74.23;101145.81;6197381;28;20057;-72
2022/06/26 07:26:12;;;;;;;2.85;1.25;;;;;;;22.13;74.55;101141.19;6199009;28;20050;-72
2022/06/26 07:29:14;;;;;;;1.88;1.65;;;;;;;22.08;73.91;101136.25;6199695;28;20057;-72
2022/06/26 07:32:16;;;;;;;1.98;1.55;;;;;;;22.07;74.85;101133.69;6199207;28;20054;-73
2022/06/26 07:35:17;;;;;;;3.40;2.10;;;;;;;22.06;74.32;101135.53;6198924;28;20057;-73
2022/06/26 07:38:18;;;;;;;2.95;1.80;;;;;;;22.04;74.43;101133.03;6199259;28;20486;-73
2022/06/26 07:41:20;;;;;;;1.98;1.52;;;;;;;22.08;74.43;101133.56;6198081;28;20042;-73
2022/06/26 07:44:23;;;;;;;2.22;1.85;;;;;;;22.07;74.05;101139.91;6198772;28;20050;-72
2022/06/26 07:47:25;;;;;;;2.63;1.80;;;;;;;21.96;74.55;101146.28;6199195;28;20494;-72
2022/06/26 07:50:26;;;;;;;2.63;2.05;;;;;;;21.96;75.20;101142.78;6198460;28;20399;-73
2022/06/26 07:53:27;;;;;;;1.75;1.60;;;;;;;22.02;74.98;101150.19;6197444;28;20050;-72
2022/06/26 07:56:29;;;;;;;2.55;1.77;;;;;;;22.08;74.19;101149.63;6185159;28;20498;-73
2022/06/26 07:59:33;;;;;;;2.90;1.60;;;;;;;22.09;73.68;101161.19;6186333;28;20062;-74
2022/06/26 08:02:34;;;;;;;2.10;1.77;;;;;;;22.07;73.89;101168.50;6176934;28;20116;-73
2022/06/26 08:05:36;;;;;;;1.90;1.50;;;;;;;22.07;74.67;101164.00;6198589;28;20061;-73
2022/06/26 08:08:38;;;;;;;1.20;1.10;;;;;;;22.15;74.19;101156.09;6198608;28;20050;-72
2022/06/26 08:11:39;;;;;;;1.35;1.25;;;;;;;22.16;75.01;101146.25;6190052;28;20051;-73
2022/06/26 08:14:42;;;;;;;2.33;1.83;;;;;;;22.14;73.81;101158.94;6172507;28;20058;-73
2022/06/26 08:17:43;;;;;;;2.85;2.00;;;;;;;22.11;73.93;101167.22;6172592;28;20491;-73
2022/06/26 08:20:44;;;;;;;2.15;1.70;;;;;;;21.99;75.54;101170.09;6173166;28;20043;-73
2022/06/26 08:23:46;;;;;;;3.08;2.10;;;;;;;21.95;75.25;101167.84;6174624;28;20537;-72
2022/06/26 08:26:47;;;;;;;3.35;2.00;;;;;;;21.90;76.19;101175.47;6174148;28;20059;-73
2022/06/26 08:29:50;;;;;;;3.28;2.10;;;;;;;21.95;76.10;101184.75;6173558;28;20059;-73
2022/06/26 08:32:54;;;;;;;2.67;1.50;;;;;;;22.07;75.86;101166.66;6174070;28;20495;-73
2022/06/26 08:35:55;;;;;;;4.32;2.30;;;;;;;22.23;75.34;101172.28;6173714;28;20098;-73
2022/06/26 08:38:57;;;;;;;2.63;2.15;;;;;;;22.26;74.69;101181.88;6174071;28;20055;-73
2022/06/26 08:41:58;;;;;;;7.00;1.85;;;;;;;22.30;75.18;101172.53;6173213;28;20058;-72
2022/06/26 08:45:01;;;;;;;2.78;1.95;;;;;;;22.39;74.54;101174.34;6173469;28;20047;-73
2022/06/26 08:48:04;;;;;;;3.65;2.00;;;;;;;22.42;74.96;101168.66;6173865;28;20060;-73
2022/06/26 08:51:06;;;;;;;4.80;2.55;;;;;;;22.46;74.12;101175.41;6172794;28;20051;-73
2022/06/26 08:54:09;;;;;;;2.25;1.90;;;;;;;22.47;74.78;101171.75;6174221;28;20043;-73
2022/06/26 08:57:12;;;;;;;2.40;2.03;;;;;;;22.54;73.97;101170.16;6173450;28;20047;-73
2022/06/26 09:00:18;;;;;;;2.60;2.22;;;;;;;22.64;73.23;101190.72;6173329;28;20109;-74
2022/06/26 09:03:19;;;;;;;2.08;1.70;;;;;;;22.70;73.43;101190.94;6173576;28;20054;-73
2022/06/26 09:06:21;;;;;;;2.05;1.80;;;;;;;22.96;72.32;101196.47;6173278;28;20051;-73
2022/06/26 09:09:24;;;;;;;2.40;1.88;;;;;;;23.20;71.40;101203.91;6173400;28;20057;-72
2022/06/26 09:12:35;;;;;;;1.50;1.27;;;;;;;23.38;71.04;101205.75;6173082;28;20051;-74
2022/06/26 09:15:40;;;;;;;4.13;1.90;;;;;;;23.49;70.87;101214.41;6170029;28;20404;-76
2022/06/26 09:18:44;;;;;;;4.03;1.50;;;;;;;23.58;68.87;101215.31;6185214;28;20478;-73
2022/06/26 09:21:46;;;;;;;3.35;1.40;;;;;;;23.53;68.78;101229.22;6190489;28;20494;-72
2022/06/26 09:24:54;;;;;;;2.72;1.92;;;;;;;23.44;68.56;101222.09;6175928;28;20062;-72
2022/06/26 09:27:56;;;;;;;3.15;1.75;;;;;;;23.49;68.80;101218.94;6170933;28;20079;-73
2022/06/26 09:31:00;;;;;;;2.35;1.65;;;;;;;23.64;68.52;101230.84;6160890;28;20043;-74
2022/06/26 09:34:02;;;;;;;2.13;1.48;;;;;;;23.84;68.50;101231.47;6186910;28;20054;-74
2022/06/26 09:37:05;;;;;;;3.30;2.03;;;;;;;23.86;67.84;101223.28;6188740;28;20051;-72
2022/06/26 09:40:08;;;;;;;1.95;1.63;;;;;;;23.98;67.48;101230.06;6171031;28;20055;-75
2022/06/26 09:43:09;;;;;;;3.20;1.75;;;;;;;24.04;66.78;101224.09;6164426;28;20665;-74
2022/06/26 09:46:14;;;;;;;6.15;1.70;;;;;;;23.99;66.52;101231.78;6159128;28;20498;-74
2022/06/26 09:49:17;;;;;;;4.30;1.73;;;;;;;23.97;65.62;101234.59;6173356;28;20055;-72
2022/06/26 09:52:19;;;;;;;2.13;1.60;;;;;;;23.99;64.92;101231.78;6195407;28;20047;-73
2022/06/26 09:55:20;;;;;;;2.13;1.33;;;;;;;23.95;63.39;101231.25;6173080;28;20047;-73
2022/06/26 09:58:22;;;;;;;2.55;1.65;;;;;;;23.96;62.58;101229.41;6173020;28;20435;-74
2022/06/26 10:08:07;;;;;;;3.00;1.30;;;;;;;23.92;65.08;101238.75;6174279;28;20055;-73
2022/06/26 10:11:09;;;;;;;2.47;1.30;;;;;;;23.91;65.69;101240.59;6176862;28;20050;-73
2022/06/26 10:14:14;;;;;;;2.88;1.13;;;;;;;23.90;65.40;101240.78;6175444;28;20046;-73
2022/06/26 10:17:34;;;;;;;2.83;1.88;;;;;;;23.90;65.14;101246.13;6176915;28;20061;-74
2022/06/26 10:20:38;;;;;;;1.73;1.63;;;;;;;23.91;65.20;101247.81;6176479;28;20057;-70
2022/06/26 10:23:41;;;;;;;1.55;1.45;;;;;;;23.92;65.77;101246.81;6177877;28;20051;-73
2022/06/26 10:26:51;;;;;;;2.08;1.38;;;;;;;23.95;65.35;101250.03;6176816;28;20051;-73
2022/06/26 10:30:05;;;;;;;1.92;1.30;;;;;;;24.08;64.21;101251.47;6176390;28;20582;-74
2022/06/26 10:33:10;;;;;;;5.70;1.67;;;;;;;23.98;64.01;101262.28;6176661;28;20054;-73
2022/06/26 10:36:21;;;;;;;2.08;1.15;;;;;;;23.94;65.18;101252.88;6176337;28;20058;-72
2022/06/26 10:39:22;;;;;;;1.45;1.23;;;;;;;24.04;64.76;101257.16;6176426;28;20415;-73
2022/06/26 10:45:44;;;;;;;1.55;1.27;;;;;;;24.38;63.52;101248.31;6176112;28;20138;-73
2022/06/26 10:48:54;;;;;;;2.67;1.40;;;;;;;24.59;62.59;101269.44;6176420;28;20133;-73
2022/06/26 10:51:56;;;;;;;1.23;1.00;;;;;;;24.52;61.94;101269.22;6175775;28;20051;-74
2022/06/26 10:54:59;;;;;;;1.30;1.20;;;;;;;24.36;61.20;101270.97;6176026;28;20055;-73
2022/06/26 10:58:01;;;;;;;1.88;1.13;;;;;;;24.24;62.38;101276.56;6175987;28;20414;-74
2022/06/26 11:01:04;;;;;;;1.33;1.15;;;;;;;24.28;62.80;101271.75;6175774;28;20054;-74
2022/06/26 11:04:07;;;;;;;0.95;0.90;;;;;;;24.29;60.88;101268.88;6175520;28;20083;-74
2022/06/26 11:07:09;;;;;;;1.48;1.20;;;;;;;24.16;61.18;101273.00;6175940;28;20414;-73
2022/06/26 11:10:12;;;;;;;1.20;1.10;;;;;;;23.98;61.25;101267.66;6175349;28;20046;-75
2022/06/26 11:13:14;;;;;;;1.60;1.00;;;;;;;23.83;62.21;101270.06;6175614;28;20411;-73
2022/06/26 11:16:15;;;;;;;1.15;0.90;;;;;;;23.78;62.92;101272.38;6175240;28;20055;-74
2022/06/26 11:19:26;;;;;;;1.42;1.15;;;;;;;23.69;63.48;101267.94;6175979;28;20066;-73
2022/06/26 11:22:28;;;;;;;2.20;1.00;;;;;;;23.63;63.69;101279.28;6176218;28;20133;-74
2022/06/26 11:25:30;;;;;;;1.65;1.10;;;;;;;23.65;63.89;101269.25;6175383;28;20054;-73
2022/06/26 11:28:32;;;;;;;1.02;0.90;;;;;;;23.68;63.65;101275.16;6175492;28;20051;-73
2022/06/26 11:31:34;;;;;;;2.25;0.80;;;;;;;23.72;64.13;101279.22;6174820;28;20043;-74
2022/06/26 11:34:36;;;;;;;0.80;0.80;;;;;;;23.77;63.73;101279.59;6175003;28;20058;-74
2022/06/26 11:37:40;;;;;;;0.80;0.75;;;;;;;23.87;63.54;101282.19;6175108;28;20050;-74
2022/06/26 11:40:42;;;;;;;0.80;0.80;;;;;;;24.01;62.88;101275.41;6174839;28;20194;-74
2022/06/26 11:43:48;;;;;;;0.80;0.80;;;;;;;23.85;63.77;101292.25;6174624;28;20054;-73
2022/06/26 11:46:49;;;;;;;1.20;1.10;;;;;;;23.76;64.06;101288.66;6174918;28;20427;-73
2022/06/26 11:49:52;;;;;;;0.80;0.65;;;;;;;23.79;64.70;101296.38;6174397;28;20046;-73
2022/06/26 11:52:54;;;;;;;1.00;0.90;;;;;;;23.73;64.14;101306.91;6175848;28;20039;-73
2022/06/26 11:55:57;;;;;;;0.63;0.63;;;;;;;23.82;64.48;101294.38;6174344;28;20046;-73
2022/06/26 11:58:59;;;;;;;1.00;0.90;;;;;;;23.89;64.96;101295.44;6174927;28;20058;-72
2022/06/26 12:02:01;;;;;;;1.02;0.93;;;;;;;23.94;64.22;101294.00;6174125;28;20050;-73
2022/06/26 12:05:04;;;;;;;1.25;0.60;;;;;;;24.02;64.31;101301.25;6174128;28;20411;-74
2022/06/26 12:08:14;;;;;;;0.95;0.70;;;;;;;24.03;63.74;101295.75;6174691;28;20054;-73
2022/06/26 12:11:15;;;;;;;1.05;0.75;;;;;;;24.26;62.91;101296.09;6173914;28;20419;-74
2022/06/26 12:14:19;;;;;;;1.02;0.90;;;;;;;24.55;61.89;101303.00;6174193;28;20054;-73
2022/06/26 12:17:22;;;;;;;0.80;0.80;;;;;;;24.61;60.93;101288.91;6174219;28;20058;-74
2022/06/26 12:20:25;;;;;;;2.75;0.73;;;;;;;24.71;60.07;101299.56;6173786;28;20141;-74
2022/06/26 12:23:32;;;;;;;1.67;0.80;;;;;;;24.72;59.58;101299.41;6175096;28;20046;-74
2022/06/26 12:26:38;;;;;;;1.85;0.77;;;;;;;24.70;59.78;101295.19;6173296;28;20057;-74
2022/06/26 12:29:40;;;;;;;1.58;0.65;;;;;;;24.62;60.15;101289.75;6173641;28;20055;-73
2022/06/26 12:32:42;;;;;;;1.25;0.60;;;;;;;24.47;60.36;101298.41;6173849;28;20043;-74
2022/06/26 12:35:44;;;;;;;0.77;0.77;;;;;;;24.41;59.77;101291.00;6173236;28;20057;-74
2022/06/26 12:38:47;;;;;;;0.73;0.60;;;;;;;24.27;60.08;101294.25;6173924;28;20054;-73
2022/06/26 12:41:49;;;;;;;1.25;0.65;;;;;;;24.32;59.82;101293.75;6173799;28;20055;-74
2022/06/26 12:44:50;;;;;;;0.65;0.65;;;;;;;24.46;59.85;101290.53;6173991;28;20142;-74
2022/06/26 12:47:52;;;;;;;0.63;0.63;;;;;;;24.70;58.99;101287.94;6173777;28;20047;-73
2022/06/26 12:50:54;;;;;;;0.70;0.60;;;;;;;25.51;55.45;101289.25;6173359;28;20050;-73
2022/06/26 12:53:57;;;;;;;1.13;0.80;;;;;;;25.69;54.84;101295.31;6173416;28;20499;-74
2022/06/26 12:56:58;;;;;;;0.50;0.50;;;;;;;25.68;53.84;101298.19;6172975;28;20522;-73
2022/06/26 13:00:00;;;;;;;0.73;0.57;;;;;;;25.48;54.23;101295.81;6170394;28;20059;-73
2022/06/26 13:03:01;;;;;;;1.85;0.70;;;;;;;25.36;54.12;101301.69;6168270;28;20046;-74
2022/06/26 13:06:04;;;;;;;0.45;0.45;;;;;;;25.29;54.85;101299.63;6162043;28;20415;-73
2022/06/26 13:09:05;;;;;;;0.60;0.60;;;;;;;25.17;54.45;101292.06;6149578;28;20051;-73
2022/06/26 13:12:07;;;;;;;0.55;0.55;;;;;;;25.19;54.71;101293.56;6157498;28;20426;-74
2022/06/26 13:15:10;;;;;;;0.73;0.70;;;;;;;24.95;53.97;101288.91;6170499;28;20047;-74
2022/06/26 13:18:11;;;;;;;0.93;0.85;;;;;;;24.92;54.11;101283.84;6149452;29;20123;-74
2022/06/26 13:21:14;;;;;;;0.47;0.47;;;;;;;25.05;53.48;101291.47;6149121;28;20711;-73
2022/06/26 13:24:15;;;;;;;0.47;0.47;;;;;;;25.08;52.79;101287.66;6149210;28;20155;-73
2022/06/26 13:27:16;;;;;;;0.68;0.68;;;;;;;25.18;53.79;101281.13;6154425;28;20054;-74
2022/06/26 13:30:18;;;;;;;1.30;0.60;;;;;;;25.78;51.28;101275.50;6165078;28;20054;-73
2022/06/26 13:33:20;;;;;;;0.73;0.50;;;;;;;25.55;51.90;101288.75;6173437;28;20047;-73
2022/06/26 13:36:22;;;;;;;0.50;0.50;;;;;;;25.68;51.52;101293.66;6172796;28;20085;-72
2022/06/26 13:39:24;;;;;;;0.68;0.68;;;;;;;26.08;50.90;101283.91;6177272;28;20502;-74
2022/06/26 13:42:25;;;;;;;1.77;0.68;;;;;;;26.73;49.35;101281.09;6178715;28;20049;-74
2022/06/26 13:45:26;;;;;;;0.60;0.60;;;;;;;27.14;47.49;101277.38;6177667;28;20051;-74
2022/06/26 13:48:29;;;;;;;1.50;0.60;;;;;;;27.54;45.38;101279.81;6177729;28;20054;-76
2022/06/26 13:51:32;;;;;;;0.68;0.68;;;;;;;27.39;45.46;101275.38;6177210;28;20074;-73
2022/06/26 13:54:33;;;;;;;1.00;0.90;;;;;;;27.55;46.59;101275.25;6177228;28;20047;-74
2022/06/26 13:57:34;;;;;;;1.48;1.00;;;;;;;27.43;45.97;101274.81;6177742;28;20047;-73
2022/06/26 14:00:36;;;;;;;1.80;1.00;;;;;;;27.64;45.27;101267.94;6177298;28;20062;-72
2022/06/26 14:03:37;;;;;;;2.05;0.70;;;;;;;27.73;46.02;101277.69;6172061;28;20049;-73
2022/06/26 14:06:40;;;;;;;0.85;0.70;;;;;;;27.64;45.98;101276.03;6167665;28;20410;-74
2022/06/26 14:09:41;;;;;;;0.85;0.75;;;;;;;27.25;46.41;101269.75;6174983;28;20050;-74
2022/06/26 14:12:42;;;;;;;0.57;0.52;;;;;;;27.04;47.76;101258.69;6175712;28;20047;-74
2022/06/26 14:15:44;;;;;;;1.10;0.90;;;;;;;27.39;46.51;101265.44;6175868;28;20047;-73
2022/06/26 14:18:45;;;;;;;0.82;0.68;;;;;;;27.55;46.05;101265.31;6175012;28;20069;-73
2022/06/26 14:25:55;;;;;;;0.60;0.60;;;;;;;27.67;45.64;101268.44;6174905;28;20051;-73